Time;durP1;ratioP1;P1;durP2;ratioP2;P2;SDS_P1;SDS_P2;PMS_P1;PMS_P2;Temp;Humidity;BMP_temperature;BMP_pressure;BME280_temperature;BME280_humidity;BME280_pressure;Samples;Min_cycle;Max_cycle;Signal;HPM_P1;HPM_P2
2023/04/17 00:04:41;;;;;;;;;;;18.30;50.00;;;;;;10368201;28;764;-72
2023/04/17 00:09:36;;;;;;;;;;;18.20;49.90;;;;;;10367927;28;1971;-72
2023/04/17 00:14:32;;;;;;;;;;;18.20;49.90;;;;;;10367186;28;1150;-72
2023/04/17 00:19:27;;;;;;;;;;;18.20;49.90;;;;;;10367666;28;854;-72
2023/04/17 00:24:22;;;;;;;;;;;18.20;49.90;;;;;;10367970;28;1055;-72
2023/04/17 00:29:18;;;;;;;;;;;18.20;49.90;;;;;;10367245;28;1969;-72
2023/04/17 00:34:13;;;;;;;;;;;18.20;49.90;;;;;;10367800;28;813;-72
2023/04/17 00:39:08;;;;;;;;;;;18.20;49.90;;;;;;10366679;28;870;-72
2023/04/17 00:44:04;;;;;;;;;;;18.20;49.90;;;;;;10366293;28;785;-72
2023/04/17 00:49:00;;;;;;;;;;;18.20;49.80;;;;;;10366709;28;1964;-72
2023/04/17 00:53:55;;;;;;;;;;;18.20;49.80;;;;;;10367354;28;832;-72
2023/04/17 00:58:50;;;;;;;;;;;18.20;49.80;;;;;;10365906;28;1445;-72
2023/04/17 01:03:46;;;;;;;;;;;18.20;49.80;;;;;;10367064;28;873;-72
2023/04/17 01:08:41;;;;;;;;;;;18.20;49.80;;;;;;10366573;28;872;-72
2023/04/17 01:13:36;;;;;;;;;;;18.20;49.90;;;;;;10366767;28;1984;-72
2023/04/17 01:18:32;;;;;;;;;;;18.20;49.90;;;;;;10366315;28;798;-72
2023/04/17 01:23:27;;;;;;;;;;;18.20;49.80;;;;;;10366061;28;853;-72
2023/04/17 01:28:22;;;;;;;;;;;18.20;49.80;;;;;;10366594;28;976;-72
2023/04/17 01:33:18;;;;;;;;;;;18.20;49.80;;;;;;10365819;28;1913;-72
2023/04/17 01:38:13;;;;;;;;;;;18.20;49.70;;;;;;10366407;28;856;-72
2023/04/17 01:43:09;;;;;;;;;;;18.20;49.70;;;;;;10366338;28;830;-72
2023/04/17 01:48:04;;;;;;;;;;;18.20;49.70;;;;;;10364923;28;854;-72
2023/04/17 01:53:00;;;;;;;;;;;18.20;49.80;;;;;;10369104;28;1906;-72
2023/04/17 01:57:55;;;;;;;;;;;18.20;49.70;;;;;;10374210;28;1116;-72
2023/04/17 02:02:50;;;;;;;;;;;18.20;49.80;;;;;;10372908;28;924;-72
2023/04/17 02:07:46;;;;;;;;;;;18.20;49.70;;;;;;10372806;28;796;-72
2023/04/17 02:12:41;;;;;;;;;;;18.20;50.20;;;;;;10372564;28;1980;-72
2023/04/17 02:17:36;;;;;;;;;;;18.20;49.60;;;;;;10372435;28;928;-72
2023/04/17 02:22:32;;;;;;;;;;;18.10;49.70;;;;;;10371628;28;1252;-72
2023/04/17 02:27:28;;;;;;;;;;;18.20;49.70;;;;;;10372049;28;876;-72
2023/04/17 02:32:25;;;;;;;;;;;18.20;49.70;;;;;;10371788;28;1981;-72
2023/04/17 02:37:20;;;;;;;;;;;18.10;49.70;;;;;;10372229;28;937;-72
2023/04/17 02:42:16;;;;;;;;;;;18.10;49.60;;;;;;10370931;28;896;-72
2023/04/17 02:47:11;;;;;;;;;;;18.20;49.70;;;;;;10372169;28;883;-72
2023/04/17 02:52:06;;;;;;;;;;;18.20;49.60;;;;;;10371036;28;1897;-72
2023/04/17 02:57:02;;;;;;;;;;;18.20;49.50;;;;;;10371035;28;1163;-72
2023/04/17 03:01:58;;;;;;;;;;;18.20;49.60;;;;;;10371083;28;889;-72
2023/04/17 03:06:53;;;;;;;;;;;18.20;49.60;;;;;;10371111;28;932;-72
2023/04/17 03:11:49;;;;;;;;;;;18.20;49.60;;;;;;10370213;28;1902;-72
2023/04/17 03:16:44;;;;;;;;;;;18.20;49.60;;;;;;10370064;28;872;-72
2023/04/17 03:21:40;;;;;;;;;;;18.10;49.50;;;;;;10369883;28;852;-72
2023/04/17 03:26:35;;;;;;;;;;;18.10;49.50;;;;;;10370841;28;940;-72
2023/04/17 03:31:30;;;;;;;;;;;18.10;49.60;;;;;;10370461;28;1906;-72
2023/04/17 03:36:26;;;;;;;;;;;18.10;49.60;;;;;;10369350;28;817;-72
2023/04/17 03:41:22;;;;;;;;;;;18.10;49.50;;;;;;10369767;28;818;-72
2023/04/17 03:46:17;;;;;;;;;;;18.10;49.40;;;;;;10369121;28;904;-72
2023/04/17 03:51:12;;;;;;;;;;;18.20;49.50;;;;;;10369276;28;1907;-72
2023/04/17 03:56:08;;;;;;;;;;;18.10;49.50;;;;;;10368735;28;1529;-72
2023/04/17 04:01:03;;;;;;;;;;;18.10;49.50;;;;;;10368412;28;813;-72
2023/04/17 04:05:59;;;;;;;;;;;18.10;49.40;;;;;;10368969;28;893;-72
2023/04/17 04:10:54;;;;;;;;;;;18.20;49.50;;;;;;10367883;28;1914;-72
2023/04/17 04:15:49;;;;;;;;;;;18.20;49.50;;;;;;10367183;28;760;-72
2023/04/17 04:20:45;;;;;;;;;;;18.10;49.40;;;;;;10368356;28;872;-72
2023/04/17 04:25:40;;;;;;;;;;;18.10;49.40;;;;;;10367535;28;801;-72
2023/04/17 04:30:37;;;;;;;;;;;18.20;49.40;;;;;;10367269;28;1905;-72
2023/04/17 04:35:32;;;;;;;;;;;18.20;49.40;;;;;;10367745;28;894;-72
2023/04/17 04:40:29;;;;;;;;;;;18.20;49.30;;;;;;10367083;28;774;-72
2023/04/17 04:45:24;;;;;;;;;;;18.20;49.30;;;;;;10366844;28;862;-72
2023/04/17 04:50:20;;;;;;;;;;;18.20;49.20;;;;;;10366717;28;1969;-72
2023/04/17 04:55:15;;;;;;;;;;;18.30;49.30;;;;;;10366657;28;1094;-72
2023/04/17 05:00:12;;;;;;;;;;;18.20;49.30;;;;;;10366484;28;770;-72
2023/04/17 05:05:09;;;;;;;;;;;18.30;49.20;;;;;;10366478;28;786;-72
2023/04/17 05:10:05;;;;;;;;;;;18.30;49.70;;;;;;10366850;28;1910;-72
2023/04/17 05:15:00;;;;;;;;;;;18.20;49.20;;;;;;10367496;28;798;-72
2023/04/17 05:19:55;;;;;;;;;;;18.20;49.20;;;;;;10366100;28;965;-72
2023/04/17 05:24:51;;;;;;;;;;;18.30;49.20;;;;;;10366137;28;809;-72
2023/04/17 05:29:46;;;;;;;;;;;18.30;49.20;;;;;;10373919;28;1955;-72
2023/04/17 05:34:41;;;;;;;;;;;18.20;49.20;;;;;;10374059;28;896;-76
2023/04/17 05:39:37;;;;;;;;;;;18.30;49.20;;;;;;10373961;28;805;-76
2023/04/17 05:44:32;;;;;;;;;;;18.40;49.20;;;;;;10373312;28;1053;-76
2023/04/17 05:49:28;;;;;;;;;;;18.30;49.10;;;;;;10373529;28;1906;-76
2023/04/17 05:54:23;;;;;;;;;;;18.30;49.20;;;;;;10374093;28;806;-77
2023/04/17 05:59:18;;;;;;;;;;;18.30;49.10;;;;;;10373033;28;1341;-77
2023/04/17 06:04:14;;;;;;;;;;;18.30;49.10;;;;;;10373874;28;947;-77
2023/04/17 06:09:09;;;;;;;;;;;18.30;49.10;;;;;;10372630;28;1914;-77
2023/04/17 06:14:05;;;;;;;;;;;18.30;49.10;;;;;;10373277;28;940;-76
2023/04/17 06:19:01;;;;;;;;;;;18.30;49.00;;;;;;10371774;28;1123;-68
2023/04/17 06:23:57;;;;;;;;;;;18.20;49.10;;;;;;10372448;28;975;-68
2023/04/17 06:28:53;;;;;;;;;;;18.40;49.80;;;;;;10372662;28;887;-68
2023/04/17 06:33:49;;;;;;;;;;;18.30;50.00;;;;;;10371760;28;1977;-68
2023/04/17 06:38:45;;;;;;;;;;;18.40;50.20;;;;;;10371592;28;858;-68
2023/04/17 06:43:41;;;;;;;;;;;18.40;50.40;;;;;;10372052;28;1130;-68
2023/04/17 06:48:36;;;;;;;;;;;18.40;50.50;;;;;;10371872;28;864;-68
2023/04/17 06:53:32;;;;;;;;;;;18.40;50.50;;;;;;10371837;28;1969;-67
2023/04/17 06:58:27;;;;;;;;;;;18.40;50.50;;;;;;10371084;28;1363;-67
2023/04/17 07:03:22;;;;;;;;;;;18.30;50.30;;;;;;10370772;28;916;-67
2023/04/17 07:08:21;;;;;;;;;;;18.30;50.20;;;;;;10371100;28;829;-67
2023/04/17 07:13:16;;;;;;;;;;;18.30;50.20;;;;;;10370193;28;1977;-67
2023/04/17 07:18:11;;;;;;;;;;;18.40;50.30;;;;;;10370154;28;926;-68
2023/04/17 07:23:07;;;;;;;;;;;18.40;50.40;;;;;;10369960;28;778;-69
2023/04/17 07:28:02;;;;;;;;;;;18.40;50.60;;;;;;10370331;28;883;-68
2023/04/17 07:32:58;;;;;;;;;;;18.40;50.60;;;;;;10370055;28;1901;-68
2023/04/17 07:37:56;;;;;;;;;;;18.40;50.50;;;;;;10369944;28;790;-68
2023/04/17 07:42:52;;;;;;;;;;;18.40;50.40;;;;;;10369068;28;981;-69
2023/04/17 07:47:48;;;;;;;;;;;18.40;50.40;;;;;;10368960;28;880;-68
2023/04/17 07:52:43;;;;;;;;;;;18.50;50.50;;;;;;10368228;28;1965;-69
2023/04/17 07:57:42;;;;;;;;;;;18.60;50.60;;;;;;10369312;28;1340;-69
2023/04/17 08:02:37;;;;;;;;;;;18.60;50.70;;;;;;10368694;28;820;-70
2023/04/17 08:07:33;;;;;;;;;;;18.50;50.70;;;;;;10368801;28;783;-71
2023/04/17 08:12:28;;;;;;;;;;;18.50;50.60;;;;;;10367963;28;1901;-72
2023/04/17 08:17:24;;;;;;;;;;;18.50;50.50;;;;;;10367270;28;1042;-69
2023/04/17 08:22:22;;;;;;;;;;;18.50;50.40;;;;;;10367738;28;817;-68
2023/04/17 08:27:18;;;;;;;;;;;18.50;50.50;;;;;;10367506;28;902;-68
2023/04/17 08:32:13;;;;;;;;;;;18.50;50.50;;;;;;10367287;28;1898;-73
2023/04/17 08:37:09;;;;;;;;;;;18.50;50.60;;;;;;10367769;28;898;-75
2023/04/17 08:42:04;;;;;;;;;;;18.50;50.40;;;;;;10366869;28;762;-76
2023/04/17 08:47:01;;;;;;;;;;;18.50;50.50;;;;;;10367205;28;821;-75
2023/04/17 08:51:56;;;;;;;;;;;18.50;51.00;;;;;;10366708;28;1898;-75
2023/04/17 08:56:51;;;;;;;;;;;18.60;50.40;;;;;;10366271;28;1289;-75
2023/04/17 09:01:47;;;;;;;;;;;18.50;50.30;;;;;;10365624;28;874;-75
2023/04/17 09:06:42;;;;;;;;;;;18.50;50.30;;;;;;10366423;28;946;-76
2023/04/17 09:11:38;;;;;;;;;;;18.50;50.30;;;;;;10366890;28;1981;-75
2023/04/17 09:16:34;;;;;;;;;;;18.50;50.30;;;;;;10366288;28;762;-75
2023/04/17 09:21:29;;;;;;;;;;;18.50;50.30;;;;;;10366852;28;957;-76
2023/04/17 09:26:24;;;;;;;;;;;18.60;50.20;;;;;;10366800;28;977;-76
2023/04/17 09:31:20;;;;;;;;;;;18.60;50.20;;;;;;10365878;28;1939;-76
2023/04/17 09:36:15;;;;;;;;;;;18.60;50.20;;;;;;10366525;28;806;-75
2023/04/17 09:41:10;;;;;;;;;;;18.60;50.20;;;;;;10366424;28;1002;-75
2023/04/17 09:46:06;;;;;;;;;;;18.60;50.20;;;;;;10366348;28;748;-76
2023/04/17 09:51:01;;;;;;;;;;;18.60;50.20;;;;;;10365565;28;1910;-75
2023/04/17 09:56:00;;;;;;;;;;;18.60;50.10;;;;;;10365312;28;1283;-72
2023/04/17 10:00:56;;;;;;;;;;;18.60;50.20;;;;;;10365394;28;946;-75
2023/04/17 10:05:51;;;;;;;;;;;18.60;50.20;;;;;;10365303;28;909;-75
2023/04/17 10:10:49;;;;;;;;;;;18.60;50.20;;;;;;10365201;28;1969;-75
2023/04/17 10:15:44;;;;;;;;;;;18.60;50.20;;;;;;10370796;28;761;-78
2023/04/17 10:20:43;;;;;;;;;;;18.60;50.20;;;;;;10373682;28;928;-77
2023/04/17 10:25:39;;;;;;;;;;;18.60;50.20;;;;;;10372221;28;917;-79
2023/04/17 10:30:34;;;;;;;;;;;18.60;50.20;;;;;;10371954;28;1976;-68
2023/04/17 10:35:30;;;;;;;;;;;18.50;50.10;;;;;;10372488;28;805;-68
2023/04/17 10:40:26;;;;;;;;;;;18.70;50.10;;;;;;10371786;28;937;-68
2023/04/17 10:45:21;;;;;;;;;;;18.70;50.10;;;;;;10372360;28;875;-69
2023/04/17 10:50:16;;;;;;;;;;;18.70;50.20;;;;;;10371845;28;2236;-68
2023/04/17 10:55:12;;;;;;;;;;;18.80;50.30;;;;;;10370969;28;1216;-68
2023/04/17 11:00:08;;;;;;;;;;;18.80;50.40;;;;;;10370836;28;882;-78
2023/04/17 11:05:03;;;;;;;;;;;18.80;50.80;;;;;;10370674;28;906;-78
2023/04/17 11:09:59;;;;;;;;;;;18.70;50.60;;;;;;10371006;28;1910;-78
2023/04/17 11:14:55;;;;;;;;;;;18.70;50.40;;;;;;10370931;28;810;-78
2023/04/17 11:19:52;;;;;;;;;;;18.70;50.30;;;;;;10370360;28;865;-78
2023/04/17 11:24:47;;;;;;;;;;;18.70;50.40;;;;;;10369679;28;912;-78
2023/04/17 11:29:42;;;;;;;;;;;18.70;51.00;;;;;;10370851;28;1953;-78
2023/04/17 11:34:38;;;;;;;;;;;18.60;50.30;;;;;;10368919;28;829;-78
2023/04/17 11:39:33;;;;;;;;;;;18.60;50.20;;;;;;10370729;28;857;-78
2023/04/17 11:44:28;;;;;;;;;;;18.70;50.20;;;;;;10369764;28;912;-78
2023/04/17 11:49:25;;;;;;;;;;;18.60;50.10;;;;;;10368381;28;1959;-78
2023/04/17 11:54:20;;;;;;;;;;;18.70;50.20;;;;;;10369395;28;836;-78
2023/04/17 11:59:16;;;;;;;;;;;18.70;50.10;;;;;;10369445;28;1206;-77
2023/04/17 12:04:11;;;;;;;;;;;18.70;50.10;;;;;;10367840;28;872;-68
2023/04/17 12:09:06;;;;;;;;;;;18.70;50.30;;;;;;10368572;28;928;-69
2023/04/17 12:14:03;;;;;;;;;;;18.90;50.60;;;;;;10368185;28;1976;-69
2023/04/17 12:18:59;;;;;;;;;;;18.90;50.70;;;;;;10367838;28;886;-69
2023/04/17 12:23:54;;;;;;;;;;;18.90;50.80;;;;;;10368288;28;967;-69
2023/04/17 12:28:50;;;;;;;;;;;18.90;50.90;;;;;;10368094;28;879;-69
2023/04/17 12:33:46;;;;;;;;;;;18.90;50.90;;;;;;10367941;28;1964;-69
2023/04/17 12:38:41;;;;;;;;;;;18.90;50.80;;;;;;10367200;28;979;-69
2023/04/17 12:43:37;;;;;;;;;;;18.90;50.80;;;;;;10367029;28;1144;-69
2023/04/17 12:48:32;;;;;;;;;;;19.00;50.90;;;;;;10367201;28;900;-68
2023/04/17 12:53:28;;;;;;;;;;;18.90;50.80;;;;;;10366565;28;1913;-68
2023/04/17 12:58:24;;;;;;;;;;;19.00;50.90;;;;;;10366489;28;1227;-68
2023/04/17 13:03:19;;;;;;;;;;;19.00;50.80;;;;;;10366219;28;924;-69
2023/04/17 13:08:15;;;;;;;;;;;19.00;50.80;;;;;;10365600;28;941;-69
2023/04/17 13:13:10;;;;;;;;;;;19.00;50.80;;;;;;10365463;28;1975;-69
2023/04/17 13:18:06;;;;;;;;;;;19.10;50.90;;;;;;10365974;28;862;-68
2023/04/17 13:23:02;;;;;;;;;;;19.00;50.60;;;;;;10366693;28;825;-68
2023/04/17 13:27:57;;;;;;;;;;;19.00;50.60;;;;;;10366464;28;865;-68
2023/04/17 13:32:53;;;;;;;;;;;19.00;50.60;;;;;;10366242;28;1969;-77
2023/04/17 13:37:48;;;;;;;;;;;19.00;50.60;;;;;;10366291;28;826;-78
2023/04/17 13:42:43;;;;;;;;;;;19.00;50.50;;;;;;10365672;28;919;-68
2023/04/17 13:47:39;;;;;;;;;;;19.10;50.60;;;;;;10368678;28;837;-68
2023/04/17 13:52:34;;;;;;;;;;;19.10;50.60;;;;;;10373304;28;1973;-69
2023/04/17 13:57:30;;;;;;;;;;;19.10;50.50;;;;;;10373884;28;1295;-69
2023/04/17 14:02:25;;;;;;;;;;;19.20;50.50;;;;;;10373781;28;868;-69
2023/04/17 14:07:20;;;;;;;;;;;19.20;50.40;;;;;;10373045;28;912;-69
2023/04/17 14:12:19;;;;;;;;;;;19.10;50.50;;;;;;10372828;28;1917;-68
2023/04/17 14:17:15;;;;;;;;;;;19.10;50.40;;;;;;10372592;28;886;-69
2023/04/17 14:22:10;;;;;;;;;;;19.20;50.30;;;;;;10373083;28;857;-69
2023/04/17 14:27:05;;;;;;;;;;;19.20;50.20;;;;;;10372925;28;979;-69
2023/04/17 14:32:01;;;;;;;;;;;19.20;50.20;;;;;;10372287;28;1910;-68
2023/04/17 14:36:56;;;;;;;;;;;19.30;50.20;;;;;;10372518;28;944;-69
2023/04/17 14:41:51;;;;;;;;;;;19.40;50.00;;;;;;10371716;28;946;-69
2023/04/17 14:46:47;;;;;;;;;;;19.40;50.00;;;;;;10372127;28;845;-69
2023/04/17 14:51:42;;;;;;;;;;;19.40;50.20;;;;;;10371821;28;1901;-69
2023/04/17 14:56:38;;;;;;;;;;;19.50;50.00;;;;;;10371255;28;1590;-68
2023/04/17 15:01:33;;;;;;;;;;;19.60;50.00;;;;;;10370118;28;977;-69
2023/04/17 15:06:29;;;;;;;;;;;19.70;50.00;;;;;;10370470;28;813;-68
2023/04/17 15:11:24;;;;;;;;;;;19.70;50.00;;;;;;10370848;28;1984;-68
2023/04/17 15:16:20;;;;;;;;;;;19.60;50.10;;;;;;10370106;28;932;-69
2023/04/17 15:21:15;;;;;;;;;;;19.50;50.10;;;;;;10369312;28;912;-77
2023/04/17 15:26:10;;;;;;;;;;;19.40;50.10;;;;;;10370111;28;1035;-78
2023/04/17 15:31:09;;;;;;;;;;;19.50;50.10;;;;;;10369432;28;1964;-77
2023/04/17 15:36:04;;;;;;;;;;;19.60;49.90;;;;;;10369338;28;902;-78
2023/04/17 15:41:00;;;;;;;;;;;19.50;49.90;;;;;;10369045;28;865;-78
2023/04/17 15:45:56;;;;;;;;;;;19.50;50.00;;;;;;10369080;28;789;-77
2023/04/17 15:50:52;;;;;;;;;;;19.40;49.80;;;;;;10369835;28;1910;-76
2023/04/17 15:55:47;;;;;;;;;;;19.40;49.90;;;;;;10368755;28;1156;-78
2023/04/17 16:00:43;;;;;;;;;;;19.40;50.00;;;;;;10369378;28;920;-70
2023/04/17 16:05:38;;;;;;;;;;;19.40;49.90;;;;;;10369052;28;871;-78
2023/04/17 16:10:33;;;;;;;;;;;19.40;50.10;;;;;;10366984;28;1913;-78
2023/04/17 16:15:29;;;;;;;;;;;19.30;50.00;;;;;;10368407;28;785;-78
2023/04/17 16:20:24;;;;;;;;;;;19.40;50.10;;;;;;10368229;28;880;-78
2023/04/17 16:25:19;;;;;;;;;;;19.30;50.00;;;;;;10367433;28;889;-78
2023/04/17 16:30:15;;;;;;;;;;;19.30;49.90;;;;;;10367248;28;1914;-77
2023/04/17 16:35:10;;;;;;;;;;;19.40;50.00;;;;;;10367117;28;845;-78
2023/04/17 16:40:06;;;;;;;;;;;19.30;49.90;;;;;;10366957;28;857;-78
2023/04/17 16:45:01;;;;;;;;;;;19.30;49.80;;;;;;10367398;28;774;-77
2023/04/17 16:49:56;;;;;;;;;;;19.30;49.80;;;;;;10366611;28;1961;-77
2023/04/17 16:54:52;;;;;;;;;;;19.30;50.20;;;;;;10366542;28;1068;-77
2023/04/17 16:59:47;;;;;;;;;;;19.30;49.90;;;;;;10367123;28;876;-77
2023/04/17 17:04:44;;;;;;;;;;;19.30;49.80;;;;;;10366309;28;934;-68
2023/04/17 17:09:39;;;;;;;;;;;19.30;49.80;;;;;;10366769;28;1914;-69
2023/04/17 17:14:35;;;;;;;;;;;19.30;49.90;;;;;;10366758;28;840;-69
2023/04/17 17:19:30;;;;;;;;;;;19.30;49.80;;;;;;10366049;28;930;-69
2023/04/17 17:24:26;;;;;;;;;;;19.30;50.00;;;;;;10353939;28;810;-69
2023/04/17 17:29:21;;;;;;;;;;;19.30;49.90;;;;;;10374585;28;871;-69
2023/04/17 17:34:16;;;;;;;;;;;19.40;50.00;;;;;;10374303;28;1902;-69
2023/04/17 17:39:12;;;;;;;;;;;19.30;50.00;;;;;;10374318;28;980;-69
2023/04/17 17:44:07;;;;;;;;;;;19.30;50.00;;;;;;10374055;28;786;-69
2023/04/17 17:49:02;;;;;;;;;;;19.40;50.00;;;;;;10373861;28;770;-69
2023/04/17 17:53:58;;;;;;;;;;;19.30;50.00;;;;;;10374259;28;1939;-69
2023/04/17 17:58:53;;;;;;;;;;;19.30;50.00;;;;;;10372811;28;1364;-69
2023/04/17 18:03:48;;;;;;;;;;;19.30;50.00;;;;;;10373793;28;821;-69
2023/04/17 18:08:44;;;;;;;;;;;19.30;49.90;;;;;;10373816;28;868;-69
2023/04/17 18:13:39;;;;;;;;;;;19.40;50.00;;;;;;10373692;28;1910;-69
2023/04/17 18:18:34;;;;;;;;;;;19.40;49.90;;;;;;10372699;28;794;-69
2023/04/17 18:23:30;;;;;;;;;;;19.40;49.80;;;;;;10372504;28;955;-67
2023/04/17 18:28:25;;;;;;;;;;;19.30;49.80;;;;;;10372852;28;822;-67
2023/04/17 18:33:21;;;;;;;;;;;19.30;49.80;;;;;;10371603;28;1973;-67
2023/04/17 18:38:16;;;;;;;;;;;19.30;49.60;;;;;;10371892;28;761;-67
2023/04/17 18:43:11;;;;;;;;;;;19.40;49.60;;;;;;10372286;28;860;-67
2023/04/17 18:48:07;;;;;;;;;;;19.30;49.60;;;;;;10372232;28;893;-69
2023/04/17 18:53:03;;;;;;;;;;;19.40;49.60;;;;;;10372020;28;1913;-69
2023/04/17 18:57:58;;;;;;;;;;;19.30;49.60;;;;;;10370476;28;1515;-69
2023/04/17 19:02:53;;;;;;;;;;;19.40;49.60;;;;;;10372140;28;955;-70
2023/04/17 19:07:50;;;;;;;;;;;19.30;49.50;;;;;;10370746;28;904;-75
2023/04/17 19:12:46;;;;;;;;;;;19.30;49.50;;;;;;10370527;28;1922;-75
2023/04/17 19:17:41;;;;;;;;;;;19.30;49.50;;;;;;10370962;28;861;-75
2023/04/17 19:22:37;;;;;;;;;;;19.40;49.40;;;;;;10370788;28;861;-75
2023/04/17 19:27:32;;;;;;;;;;;19.40;49.40;;;;;;10369436;28;834;-75
2023/04/17 19:32:28;;;;;;;;;;;19.40;49.40;;;;;;10369642;28;1965;-76
2023/04/17 19:37:23;;;;;;;;;;;19.40;49.30;;;;;;10370219;28;766;-75
2023/04/17 19:42:19;;;;;;;;;;;19.40;49.30;;;;;;10369415;28;825;-76
2023/04/17 19:47:14;;;;;;;;;;;19.40;49.30;;;;;;10369015;28;914;-76
2023/04/17 19:52:10;;;;;;;;;;;19.40;49.30;;;;;;10368859;28;1898;-76
2023/04/17 19:57:05;;;;;;;;;;;19.40;49.40;;;;;;10369376;28;1126;-76
2023/04/17 20:02:01;;;;;;;;;;;19.40;49.30;;;;;;10368962;28;889;-76
2023/04/17 20:06:57;;;;;;;;;;;19.40;49.30;;;;;;10368454;28;777;-76
2023/04/17 20:11:52;;;;;;;;;;;19.40;49.30;;;;;;10367682;28;1906;-75
2023/04/17 20:16:48;;;;;;;;;;;19.40;49.30;;;;;;10368077;28;769;-75
2023/04/17 20:21:45;;;;;;;;;;;19.30;49.30;;;;;;10368463;28;869;-75
2023/04/17 20:26:42;;;;;;;;;;;19.30;49.30;;;;;;10367653;28;968;-75
2023/04/17 20:31:38;;;;;;;;;;;19.30;49.30;;;;;;10367789;28;1951;-76
2023/04/17 20:36:33;;;;;;;;;;;19.30;49.30;;;;;;10367312;28;881;-76
2023/04/17 20:41:29;;;;;;;;;;;19.30;49.30;;;;;;10367559;28;944;-76
2023/04/17 20:46:24;;;;;;;;;;;19.30;49.40;;;;;;10367172;28;832;-76
2023/04/17 20:51:20;;;;;;;;;;;19.30;49.30;;;;;;10367406;28;1964;-76
2023/04/17 20:56:15;;;;;;;;;;;19.30;49.30;;;;;;10366325;28;1151;-76
2023/04/17 21:01:10;;;;;;;;;;;19.30;49.30;;;;;;10366677;28;857;-75
2023/04/17 21:06:06;;;;;;;;;;;19.30;49.30;;;;;;10366786;28;793;-76
2023/04/17 21:11:01;;;;;;;;;;;19.30;49.30;;;;;;10367035;28;1964;-76
2023/04/17 21:15:56;;;;;;;;;;;19.30;49.40;;;;;;10366577;28;839;-76
2023/04/17 21:20:52;;;;;;;;;;;19.30;49.30;;;;;;10366327;28;913;-75
2023/04/17 21:25:49;;;;;;;;;;;19.40;49.30;;;;;;10366024;28;1057;-76
2023/04/17 21:30:44;;;;;;;;;;;19.40;49.30;;;;;;10366589;28;1894;-75
2023/04/17 21:35:39;;;;;;;;;;;19.30;49.30;;;;;;10366634;28;829;-75
2023/04/17 21:40:35;;;;;;;;;;;19.30;49.30;;;;;;10366526;28;865;-75
2023/04/17 21:45:30;;;;;;;;;;;19.30;49.20;;;;;;10365737;28;983;-75
2023/04/17 21:50:26;;;;;;;;;;;19.30;49.30;;;;;;10365682;28;1905;-76
2023/04/17 21:55:21;;;;;;;;;;;19.30;49.30;;;;;;10365141;28;1312;-75
2023/04/17 22:00:16;;;;;;;;;;;19.30;49.30;;;;;;10365549;28;989;-76
2023/04/17 22:05:12;;;;;;;;;;;19.30;49.30;;;;;;10364890;28;840;-75
2023/04/17 22:10:07;;;;;;;;;;;19.40;49.30;;;;;;10369148;28;1985;-76
2023/04/17 22:15:02;;;;;;;;;;;19.30;49.20;;;;;;10373576;28;915;-75
2023/04/17 22:19:58;;;;;;;;;;;19.30;49.20;;;;;;10372031;28;841;-75
2023/04/17 22:24:53;;;;;;;;;;;19.30;49.10;;;;;;10371919;28;930;-75
2023/04/17 22:29:48;;;;;;;;;;;19.30;49.20;;;;;;10371638;28;1967;-75
2023/04/17 22:34:44;;;;;;;;;;;19.30;49.10;;;;;;10372177;28;899;-75
2023/04/17 22:39:39;;;;;;;;;;;19.30;49.10;;;;;;10372531;28;850;-76
2023/04/17 22:44:35;;;;;;;;;;;19.30;49.10;;;;;;10371789;28;750;-75
2023/04/17 22:49:31;;;;;;;;;;;19.30;49.10;;;;;;10372624;28;832;-75
2023/04/17 22:54:26;;;;;;;;;;;19.30;49.10;;;;;;10371252;28;1898;-75
2023/04/17 22:59:22;;;;;;;;;;;19.30;49.10;;;;;;10371839;28;1224;-75
2023/04/17 23:04:17;;;;;;;;;;;19.30;49.00;;;;;;10371002;28;741;-76
2023/04/17 23:09:13;;;;;;;;;;;19.30;49.00;;;;;;10370802;28;881;-75
2023/04/17 23:14:09;;;;;;;;;;;19.30;49.00;;;;;;10371131;28;1983;-75
2023/04/17 23:19:05;;;;;;;;;;;19.40;49.10;;;;;;10370731;28;985;-75
2023/04/17 23:24:00;;;;;;;;;;;19.30;49.00;;;;;;10370201;28;790;-75
2023/04/17 23:28:55;;;;;;;;;;;19.30;49.10;;;;;;10370024;28;960;-75
2023/04/17 23:33:51;;;;;;;;;;;19.30;49.10;;;;;;10369732;28;1897;-76
2023/04/17 23:38:46;;;;;;;;;;;19.30;49.10;;;;;;10370398;28;811;-75
2023/04/17 23:43:41;;;;;;;;;;;19.30;49.10;;;;;;10369996;28;854;-76
2023/04/17 23:48:37;;;;;;;;;;;19.30;49.10;;;;;;10369216;28;971;-75
2023/04/17 23:53:32;;;;;;;;;;;19.30;49.00;;;;;;10369533;28;1898;-75
2023/04/17 23:58:28;;;;;;;;;;;19.30;49.10;;;;;;10368411;28;1401;-75
